createdAt,value
2018-02-15T00:00:20.459Z,1008.58
2018-02-15T00:01:20.470Z,1008.6
2018-02-15T00:02:20.476Z,1008.59
2018-02-15T00:03:20.486Z,1008.57
2018-02-15T00:04:20.495Z,1008.61
2018-02-15T00:05:20.504Z,1008.6
2018-02-15T00:06:20.514Z,1008.6
2018-02-15T00:07:20.524Z,1008.6
2018-02-15T00:08:20.533Z,1008.57
2018-02-15T00:09:20.543Z,1008.63
2018-02-15T00:10:20.553Z,1008.62
2018-02-15T00:11:20.560Z,1008.64
2018-02-15T00:12:20.570Z,1008.64
2018-02-15T00:13:20.582Z,1008.62
2018-02-15T00:14:20.590Z,1008.64
2018-02-15T00:15:20.599Z,1008.67
2018-02-15T00:16:20.607Z,1008.68
2018-02-15T00:17:20.617Z,1008.68
2018-02-15T00:18:20.627Z,1008.64
2018-02-15T00:19:20.636Z,1008.67
2018-02-15T00:20:20.644Z,1008.62
2018-02-15T00:21:20.658Z,1008.65
2018-02-15T00:22:20.663Z,1008.68
2018-02-15T00:23:20.672Z,1008.66
2018-02-15T00:24:20.686Z,1008.72
2018-02-15T00:25:20.692Z,1008.73
2018-02-15T00:26:20.701Z,1008.68
2018-02-15T00:27:20.712Z,1008.76
2018-02-15T00:28:20.720Z,1008.76
2018-02-15T00:29:20.730Z,1008.71
2018-02-15T00:30:20.738Z,1008.72
2018-02-15T00:31:20.750Z,1008.72
2018-02-15T00:32:20.757Z,1008.7
2018-02-15T00:33:20.767Z,1008.72
2018-02-15T00:34:20.776Z,1008.72
2018-02-15T00:35:20.785Z,1008.76
2018-02-15T00:36:20.796Z,1008.79
2018-02-15T00:37:20.807Z,1008.74
2018-02-15T00:38:20.813Z,1008.7
2018-02-15T00:39:20.825Z,1008.77
2018-02-15T00:40:20.833Z,1008.74
2018-02-15T00:41:20.840Z,1008.74
2018-02-15T00:42:20.848Z,1008.76
2018-02-15T00:43:20.860Z,1008.74
2018-02-15T00:44:20.868Z,1008.71
2018-02-15T00:45:20.877Z,1008.69
2018-02-15T00:46:20.887Z,1008.65
2018-02-15T00:47:20.899Z,1008.64
2018-02-15T00:48:20.907Z,1008.6
2018-02-15T00:49:20.914Z,1008.64
2018-02-15T00:50:20.923Z,1008.63
2018-02-15T00:51:20.934Z,1008.61
2018-02-15T00:52:20.943Z,1008.67
2018-02-15T00:53:20.952Z,1008.65
2018-02-15T00:54:20.961Z,1008.65
2018-02-15T00:55:20.973Z,1008.7
2018-02-15T00:56:20.983Z,1008.63
2018-02-15T00:57:20.988Z,1008.61
2018-02-15T00:58:20.999Z,1008.61
2018-02-15T00:59:21.009Z,1008.58
2018-02-15T01:00:21.020Z,1008.54
2018-02-15T01:01:21.026Z,1008.56
2018-02-15T01:02:21.035Z,1008.53
2018-02-15T01:03:21.044Z,1008.55
2018-02-15T01:04:21.053Z,1008.54
2018-02-15T01:05:21.062Z,1008.54
2018-02-15T01:06:21.122Z,1008.46
2018-02-15T01:07:21.083Z,1008.48
2018-02-15T01:08:21.091Z,1008.46
2018-02-15T01:09:21.103Z,1008.47
2018-02-15T01:10:21.109Z,1008.41
2018-02-15T01:11:21.118Z,1008.46
2018-02-15T01:12:21.127Z,1008.47
2018-02-15T01:13:21.137Z,1008.48
2018-02-15T01:14:21.146Z,1008.52
2018-02-15T01:15:21.155Z,1008.52
2018-02-15T01:16:21.165Z,1008.54
2018-02-15T01:17:21.173Z,1008.55
2018-02-15T01:18:21.182Z,1008.49
2018-02-15T01:19:21.193Z,1008.49
2018-02-15T01:20:21.207Z,1008.5
2018-02-15T01:21:21.210Z,1008.5
2018-02-15T01:22:21.218Z,1008.5
2018-02-15T01:23:21.227Z,1008.49
2018-02-15T01:24:21.237Z,1008.56
2018-02-15T01:25:21.247Z,1008.54
2018-02-15T01:26:21.305Z,1008.51
2018-02-15T01:27:21.265Z,1008.48
2018-02-15T01:28:21.275Z,1008.41
2018-02-15T01:29:21.283Z,1008.44
2018-02-15T01:30:21.292Z,1008.41
2018-02-15T01:31:21.351Z,1008.36
2018-02-15T01:32:21.309Z,1008.42
2018-02-15T01:33:21.318Z,1008.41
2018-02-15T01:34:21.329Z,1008.45
2018-02-15T01:35:21.336Z,1008.43
2018-02-15T01:36:21.349Z,1008.43
2018-02-15T01:37:21.394Z,1008.44
2018-02-15T01:38:21.364Z,1008.44
2018-02-15T01:39:21.374Z,1008.41
2018-02-15T01:40:21.384Z,1008.38
2018-02-15T01:41:21.393Z,1008.43
2018-02-15T01:42:21.403Z,1008.37
2018-02-15T01:43:21.410Z,1008.41
2018-02-15T01:44:21.419Z,1008.4
2018-02-15T01:45:21.429Z,1008.37
2018-02-15T01:46:21.437Z,1008.35
2018-02-15T01:47:21.445Z,1008.37
2018-02-15T01:48:21.458Z,1008.37
2018-02-15T01:49:21.464Z,1008.35
2018-02-15T01:50:21.473Z,1008.42
2018-02-15T01:51:21.481Z,1008.34
2018-02-15T01:52:21.490Z,1008.4
2018-02-15T01:53:21.499Z,1008.36
2018-02-15T01:54:21.509Z,1008.4
2018-02-15T01:55:21.518Z,1008.4
2018-02-15T01:56:21.529Z,1008.42
2018-02-15T01:57:21.535Z,1008.42
2018-02-15T01:58:21.544Z,1008.48
2018-02-15T01:59:21.555Z,1008.49
2018-02-15T02:00:21.563Z,1008.51
2018-02-15T02:01:21.573Z,1008.51
2018-02-15T02:02:21.582Z,1008.51
2018-02-15T02:03:21.588Z,1008.49
2018-02-15T02:04:21.599Z,1008.48
2018-02-15T02:05:21.608Z,1008.48
2018-02-15T02:06:21.616Z,1008.46
2018-02-15T02:07:21.626Z,1008.4
2018-02-15T02:08:21.642Z,1008.37
2018-02-15T02:09:21.643Z,1008.38
2018-02-15T02:10:21.660Z,1008.37
2018-02-15T02:11:21.661Z,1008.32
2018-02-15T02:12:21.672Z,1008.34
2018-02-15T02:13:21.682Z,1008.36
2018-02-15T02:14:21.688Z,1008.4
2018-02-15T02:15:21.696Z,1008.38
2018-02-15T02:16:21.756Z,1008.36
2018-02-15T02:17:21.714Z,1008.34
2018-02-15T02:18:21.724Z,1008.33
2018-02-15T02:19:21.732Z,1008.32
2018-02-15T02:20:21.741Z,1008.32
2018-02-15T02:21:21.751Z,1008.36
2018-02-15T02:22:21.759Z,1008.39
2018-02-15T02:23:21.768Z,1008.36
2018-02-15T02:24:21.776Z,1008.36
2018-02-15T02:25:21.786Z,1008.36
2018-02-15T02:26:21.795Z,1008.34
2018-02-15T02:27:21.804Z,1008.3
2018-02-15T02:28:21.814Z,1008.28
2018-02-15T02:29:21.822Z,1008.29
2018-02-15T02:30:21.878Z,1008.28
2018-02-15T02:31:21.841Z,1008.24
2018-02-15T02:32:21.848Z,1008.22
2018-02-15T02:33:21.859Z,1008.19
2018-02-15T02:34:21.867Z,1008.13
2018-02-15T02:35:21.878Z,1008.13
2018-02-15T02:36:21.886Z,1008.15
2018-02-15T02:37:21.895Z,1008.15
2018-02-15T02:38:21.902Z,1008.13
2018-02-15T02:39:21.912Z,1008.12
2018-02-15T02:40:21.922Z,1008.13
2018-02-15T02:41:21.931Z,1008.17
2018-02-15T02:42:21.938Z,1008.17
2018-02-15T02:43:21.947Z,1008.16
2018-02-15T02:44:21.956Z,1008.16
2018-02-15T02:45:21.968Z,1008.13
2018-02-15T02:46:21.975Z,1008.07
2018-02-15T02:47:21.982Z,1008.05
2018-02-15T02:48:21.996Z,1008.04
2018-02-15T02:49:22.003Z,1008.01
2018-02-15T02:50:22.008Z,1007.94
2018-02-15T02:51:22.017Z,1007.96
2018-02-15T02:52:22.041Z,1007.97
2018-02-15T02:53:22.037Z,1008
2018-02-15T02:54:22.047Z,1007.98
2018-02-15T02:55:22.057Z,1008.04
2018-02-15T02:56:22.064Z,1008
2018-02-15T02:57:22.070Z,1008.01
2018-02-15T02:58:22.083Z,1007.96
2018-02-15T02:59:22.088Z,1007.98
2018-02-15T03:00:22.101Z,1008
2018-02-15T03:01:22.106Z,1008.02
2018-02-15T03:02:22.135Z,1007.97
2018-02-15T03:03:22.125Z,1007.98
2018-02-15T03:04:22.146Z,1007.96
2018-02-15T03:05:22.143Z,1007.91
2018-02-15T03:06:22.152Z,1007.94
2018-02-15T03:07:22.158Z,1007.9
2018-02-15T03:08:22.170Z,1007.89
2018-02-15T03:09:22.177Z,1007.79
2018-02-15T03:10:22.187Z,1007.8
2018-02-15T03:11:22.194Z,1007.73
2018-02-15T03:12:22.267Z,1007.72
2018-02-15T03:13:22.211Z,1007.74
2018-02-15T03:14:22.221Z,1007.67
2018-02-15T03:15:22.229Z,1007.66
2018-02-15T03:16:22.238Z,1007.68
2018-02-15T03:17:22.247Z,1007.7
2018-02-15T03:18:22.255Z,1007.67
2018-02-15T03:19:22.264Z,1007.64
2018-02-15T03:20:22.273Z,1007.64
2018-02-15T03:21:22.281Z,1007.63
2018-02-15T03:22:22.290Z,1007.62
2018-02-15T03:23:22.298Z,1007.6
2018-02-15T03:24:22.309Z,1007.59
2018-02-15T03:25:22.317Z,1007.55
2018-02-15T03:26:22.329Z,1007.58
2018-02-15T03:27:22.333Z,1007.56
2018-02-15T03:28:22.345Z,1007.57
2018-02-15T03:29:22.362Z,1007.57
2018-02-15T03:30:22.361Z,1007.58
2018-02-15T03:31:22.373Z,1007.59
2018-02-15T03:32:22.379Z,1007.53
2018-02-15T03:33:22.389Z,1007.53
2018-02-15T03:34:22.403Z,1007.52
2018-02-15T03:35:22.421Z,1007.57
2018-02-15T03:36:22.412Z,1007.55
2018-02-15T03:37:22.441Z,1007.55
2018-02-15T03:38:22.442Z,1007.52
2018-02-15T03:39:22.456Z,1007.5
2018-02-15T03:40:22.446Z,1007.5
2018-02-15T03:41:22.456Z,1007.49
2018-02-15T03:42:22.466Z,1007.51
2018-02-15T03:43:22.474Z,1007.49
2018-02-15T03:44:22.482Z,1007.51
2018-02-15T03:45:22.495Z,1007.5
2018-02-15T03:46:22.498Z,1007.5
2018-02-15T03:47:22.507Z,1007.55
2018-02-15T03:48:22.517Z,1007.54
2018-02-15T03:49:22.528Z,1007.62
2018-02-15T03:50:22.534Z,1007.64
2018-02-15T03:51:22.541Z,1007.65
2018-02-15T03:52:22.550Z,1007.75
2018-02-15T03:53:22.560Z,1007.81
2018-02-15T03:54:22.570Z,1007.84
2018-02-15T03:55:22.577Z,1007.83
2018-02-15T03:56:22.641Z,1007.91
2018-02-15T03:57:22.595Z,1007.91
2018-02-15T03:58:22.603Z,1007.96
2018-02-15T03:59:22.615Z,1007.96
2018-02-15T04:00:22.619Z,1007.93
2018-02-15T04:01:22.628Z,1007.91
2018-02-15T04:02:22.641Z,1007.83
2018-02-15T04:03:22.651Z,1007.81
2018-02-15T04:04:22.656Z,1007.76
2018-02-15T04:05:22.665Z,1007.74
2018-02-15T04:06:22.679Z,1007.76
2018-02-15T04:07:22.680Z,1007.75
2018-02-15T04:08:22.690Z,1007.76
2018-02-15T04:09:22.701Z,1007.79
2018-02-15T04:10:22.708Z,1007.76
2018-02-15T04:11:22.719Z,1007.75
2018-02-15T04:12:22.832Z,1007.73
2018-02-15T04:13:22.734Z,1007.74
2018-02-15T04:14:22.743Z,1007.69
2018-02-15T04:15:22.758Z,1007.68
2018-02-15T04:16:22.759Z,1007.71
2018-02-15T04:17:22.818Z,1007.69
2018-02-15T04:18:22.777Z,1007.7
2018-02-15T04:19:22.785Z,1007.7
2018-02-15T04:20:22.793Z,1007.71
2018-02-15T04:21:22.802Z,1007.72
2018-02-15T04:22:22.810Z,1007.69
2018-02-15T04:23:22.857Z,1007.69
2018-02-15T04:24:22.828Z,1007.68
2018-02-15T04:25:22.837Z,1007.69
2018-02-15T04:26:22.845Z,1007.69
2018-02-15T04:27:22.855Z,1007.73
2018-02-15T04:28:22.862Z,1007.74
2018-02-15T04:29:22.871Z,1007.74
2018-02-15T04:30:22.879Z,1007.7
2018-02-15T04:31:22.887Z,1007.7
2018-02-15T04:32:22.948Z,1007.69
2018-02-15T04:33:22.905Z,1007.67
2018-02-15T04:34:22.917Z,1007.64
2018-02-15T04:35:22.923Z,1007.59
2018-02-15T04:36:22.930Z,1007.58
2018-02-15T04:37:22.939Z,1007.52
2018-02-15T04:38:22.949Z,1007.46
2018-02-15T04:39:22.957Z,1007.46
2018-02-15T04:40:22.966Z,1007.43
2018-02-15T04:41:22.978Z,1007.38
2018-02-15T04:42:22.981Z,1007.4
2018-02-15T04:43:22.991Z,1007.4
2018-02-15T04:44:23.000Z,1007.41
2018-02-15T04:45:23.009Z,1007.43
2018-02-15T04:46:23.017Z,1007.43
2018-02-15T04:47:23.025Z,1007.4
2018-02-15T04:48:23.035Z,1007.45
2018-02-15T04:49:23.044Z,1007.41
2018-02-15T04:50:23.053Z,1007.38
2018-02-15T04:51:23.059Z,1007.41
2018-02-15T04:52:23.070Z,1007.34
2018-02-15T04:53:23.077Z,1007.36
2018-02-15T04:54:23.084Z,1007.31
2018-02-15T04:55:23.095Z,1007.34
2018-02-15T04:56:23.104Z,1007.37
2018-02-15T04:57:23.112Z,1007.35
2018-02-15T04:58:23.120Z,1007.38
2018-02-15T04:59:23.129Z,1007.35
2018-02-15T05:00:23.139Z,1007.35
2018-02-15T05:01:23.147Z,1007.39
2018-02-15T05:02:23.157Z,1007.32
2018-02-15T05:03:23.164Z,1007.28
2018-02-15T05:04:23.178Z,1007.26
2018-02-15T05:05:23.181Z,1007.22
2018-02-15T05:06:23.191Z,1007.2
2018-02-15T05:07:23.196Z,1007.15
2018-02-15T05:08:23.205Z,1007.19
2018-02-15T05:09:23.214Z,1007.14
2018-02-15T05:10:23.224Z,1007.12
2018-02-15T05:11:23.232Z,1007.08
2018-02-15T05:12:23.239Z,1007.05
2018-02-15T05:13:23.248Z,1007.08
2018-02-15T05:14:23.257Z,1007.06
2018-02-15T05:15:23.266Z,1007.11
2018-02-15T05:16:23.280Z,1007.09
2018-02-15T05:17:23.282Z,1007.09
2018-02-15T05:18:23.304Z,1007.05
2018-02-15T05:19:23.299Z,1007.12
2018-02-15T05:20:23.356Z,1007.13
2018-02-15T05:21:23.319Z,1007.15
2018-02-15T05:22:23.327Z,1007.11
2018-02-15T05:23:23.336Z,1007.07
2018-02-15T05:24:23.344Z,1007.08
2018-02-15T05:25:23.352Z,1007.07
2018-02-15T05:26:23.359Z,1007.1
2018-02-15T05:27:23.368Z,1007.13
2018-02-15T05:28:23.379Z,1007.09
2018-02-15T05:29:23.386Z,1007.13
2018-02-15T05:30:23.394Z,1007.16
2018-02-15T05:31:23.403Z,1007.16
2018-02-15T05:32:23.411Z,1007.19
2018-02-15T05:33:23.420Z,1007.17
2018-02-15T05:34:23.437Z,1007.2
2018-02-15T05:35:23.438Z,1007.19
2018-02-15T05:36:23.445Z,1007.18
2018-02-15T05:37:23.453Z,1007.18
2018-02-15T05:38:23.463Z,1007.14
2018-02-15T05:39:23.470Z,1007.13
2018-02-15T05:40:23.480Z,1007.14
2018-02-15T05:41:23.488Z,1007.14
2018-02-15T05:42:23.496Z,1007.14
2018-02-15T05:43:23.507Z,1007.2
2018-02-15T05:44:23.516Z,1007.21
2018-02-15T05:45:23.531Z,1007.17
2018-02-15T05:46:23.535Z,1007.18
2018-02-15T05:47:23.544Z,1007.14
2018-02-15T05:48:23.549Z,1007.13
2018-02-15T05:49:23.561Z,1007.16
2018-02-15T05:50:23.567Z,1007.12
2018-02-15T05:51:23.576Z,1007.17
2018-02-15T05:52:23.583Z,1007.14
2018-02-15T05:53:23.597Z,1007.21
2018-02-15T05:54:23.602Z,1007.19
2018-02-15T05:55:23.615Z,1007.15
2018-02-15T05:56:23.617Z,1007.17
2018-02-15T05:57:23.626Z,1007.13
2018-02-15T05:58:23.635Z,1007.14
2018-02-15T05:59:23.644Z,1007.11
2018-02-15T06:00:23.652Z,1007.14
2018-02-15T06:01:23.661Z,1007.14
2018-02-15T06:02:23.672Z,1007.15
2018-02-15T06:03:23.677Z,1007.15
2018-02-15T06:04:23.686Z,1007.18
2018-02-15T06:05:23.696Z,1007.14
2018-02-15T06:06:23.765Z,1007.13
2018-02-15T06:07:23.722Z,1007.13
2018-02-15T06:08:23.730Z,1007.17
2018-02-15T06:09:23.740Z,1007.12
2018-02-15T06:10:23.747Z,1007.16
2018-02-15T06:11:23.757Z,1007.19
2018-02-15T06:12:23.769Z,1007.17
2018-02-15T06:13:23.775Z,1007.13
2018-02-15T06:14:23.783Z,1007.16
2018-02-15T06:15:23.792Z,1007.16
2018-02-15T06:16:23.801Z,1007.17
2018-02-15T06:17:23.808Z,1007.12
2018-02-15T06:18:23.829Z,1007.17
2018-02-15T06:19:23.828Z,1007.18
2018-02-15T06:20:23.838Z,1007.16
2018-02-15T06:21:23.843Z,1007.12
2018-02-15T06:22:23.852Z,1007.18
2018-02-15T06:23:23.911Z,1007.16
2018-02-15T06:24:23.869Z,1007.21
2018-02-15T06:25:23.879Z,1007.18
2018-02-15T06:26:23.887Z,1007.23
2018-02-15T06:27:23.895Z,1007.25
2018-02-15T06:28:23.903Z,1007.23
2018-02-15T06:29:23.912Z,1007.26
2018-02-15T06:30:23.920Z,1007.23
2018-02-15T06:31:23.929Z,1007.22
2018-02-15T06:32:23.937Z,1007.21
2018-02-15T06:33:23.996Z,1007.21
2018-02-15T06:34:23.962Z,1007.17
2018-02-15T06:35:23.963Z,1007.19
2018-02-15T06:36:23.971Z,1007.2
2018-02-15T06:37:23.981Z,1007.2
2018-02-15T06:38:24.041Z,1007.2
2018-02-15T06:39:23.997Z,1007.17
2018-02-15T06:40:24.006Z,1007.17
2018-02-15T06:41:24.016Z,1007.18
2018-02-15T06:42:24.024Z,1007.17
2018-02-15T06:43:24.033Z,1007.21
2018-02-15T06:44:24.041Z,1007.25
2018-02-15T06:45:24.053Z,1007.26
2018-02-15T06:46:24.060Z,1007.26
2018-02-15T06:47:24.067Z,1007.26
2018-02-15T06:48:24.075Z,1007.25
2018-02-15T06:49:24.085Z,1007.24
2018-02-15T06:50:24.094Z,1007.23
2018-02-15T06:51:24.101Z,1007.23
2018-02-15T06:52:24.111Z,1007.23
2018-02-15T06:53:24.169Z,1007.19
2018-02-15T06:54:24.126Z,1007.15
2018-02-15T06:55:24.136Z,1007.13
2018-02-15T06:56:24.145Z,1007.09
2018-02-15T06:57:24.154Z,1007.06
2018-02-15T06:58:24.164Z,1007.07
2018-02-15T06:59:24.173Z,1007.06
2018-02-15T07:00:24.180Z,1007.06
2018-02-15T07:01:24.189Z,1007.07
2018-02-15T07:02:24.197Z,1007.07
2018-02-15T07:03:24.206Z,1007.04
2018-02-15T07:04:24.218Z,1007.08
2018-02-15T07:05:24.229Z,1007.07
2018-02-15T07:06:24.234Z,1007.02
2018-02-15T07:07:24.240Z,1007.06
2018-02-15T07:08:24.251Z,1007.04
2018-02-15T07:09:24.264Z,1006.99
2018-02-15T07:10:24.272Z,1006.98
2018-02-15T07:11:24.283Z,1006.96
2018-02-15T07:12:24.285Z,1006.94
2018-02-15T07:13:24.293Z,1006.92
2018-02-15T07:14:24.305Z,1006.87
2018-02-15T07:15:24.312Z,1006.83
2018-02-15T07:16:24.319Z,1006.82
2018-02-15T07:17:24.331Z,1006.79
2018-02-15T07:18:24.338Z,1006.77
2018-02-15T07:19:24.350Z,1006.77
2018-02-15T07:20:24.356Z,1006.76
2018-02-15T07:21:24.373Z,1006.77
2018-02-15T07:22:24.378Z,1006.75
2018-02-15T07:23:24.382Z,1006.76
2018-02-15T07:24:24.392Z,1006.79
2018-02-15T07:25:24.407Z,1006.76
2018-02-15T07:26:24.409Z,1006.8
2018-02-15T07:27:24.423Z,1006.8
2018-02-15T07:28:24.442Z,1006.8
2018-02-15T07:29:24.438Z,1006.81
2018-02-15T07:30:24.448Z,1006.82
2018-02-15T07:31:24.454Z,1006.82
2018-02-15T07:32:24.461Z,1006.84
2018-02-15T07:33:24.470Z,1006.84
2018-02-15T07:34:24.481Z,1006.86
2018-02-15T07:35:24.488Z,1006.86
2018-02-15T07:36:24.522Z,1006.81
2018-02-15T07:37:24.515Z,1006.84
2018-02-15T07:38:24.513Z,1006.93
2018-02-15T07:39:24.526Z,1006.9
2018-02-15T07:40:24.531Z,1006.93
2018-02-15T07:41:24.539Z,1006.94
2018-02-15T07:42:24.547Z,1006.99
2018-02-15T07:43:24.558Z,1007.02
2018-02-15T07:44:24.714Z,1007.03
2018-02-15T07:45:24.645Z,1007.02
2018-02-15T07:46:24.646Z,1007.01
2018-02-15T07:47:24.633Z,1007
2018-02-15T07:48:24.614Z,1006.96
2018-02-15T07:49:24.617Z,1006.97
2018-02-15T07:50:24.626Z,1006.97
2018-02-15T07:51:24.631Z,1006.94
2018-02-15T07:52:24.638Z,1006.95
2018-02-15T07:53:24.647Z,1006.94
2018-02-15T07:54:24.656Z,1006.92
2018-02-15T07:55:24.664Z,1006.89
2018-02-15T07:56:24.673Z,1006.91
2018-02-15T07:57:24.681Z,1006.88
2018-02-15T07:58:24.691Z,1006.89
2018-02-15T07:59:24.701Z,1006.89
2018-02-15T08:00:24.709Z,1006.86
2018-02-15T08:01:24.717Z,1006.88
2018-02-15T08:02:24.726Z,1006.86
2018-02-15T08:03:24.734Z,1006.87
2018-02-15T08:04:24.744Z,1006.86
2018-02-15T08:05:24.753Z,1006.9
2018-02-15T08:06:24.762Z,1006.87
2018-02-15T08:07:24.772Z,1006.89
2018-02-15T08:08:24.780Z,1006.86
2018-02-15T08:09:24.792Z,1006.86
2018-02-15T08:10:24.799Z,1006.88
2018-02-15T08:11:24.811Z,1006.91
2018-02-15T08:12:24.815Z,1006.91
2018-02-15T08:13:24.825Z,1006.92
2018-02-15T08:14:24.835Z,1006.94
2018-02-15T08:15:24.844Z,1006.95
2018-02-15T08:16:24.852Z,1006.95
2018-02-15T08:17:24.863Z,1006.94
2018-02-15T08:18:24.869Z,1007.01
2018-02-15T08:19:24.880Z,1007.03
2018-02-15T08:20:24.895Z,1007.04
2018-02-15T08:21:24.899Z,1007.04
2018-02-15T08:22:24.906Z,1007.03
2018-02-15T08:23:24.915Z,1007.05
2018-02-15T08:24:24.925Z,1007.1
2018-02-15T08:25:24.933Z,1007.05
2018-02-15T08:26:24.943Z,1007.04
2018-02-15T08:27:24.952Z,1006.96
2018-02-15T08:28:24.962Z,1006.96
2018-02-15T08:29:24.969Z,1006.93
2018-02-15T08:30:24.979Z,1006.91
2018-02-15T08:31:24.989Z,1006.87
2018-02-15T08:32:24.999Z,1006.87
2018-02-15T08:33:25.008Z,1006.86
2018-02-15T08:34:25.017Z,1006.88
2018-02-15T08:35:25.027Z,1006.88
2018-02-15T08:36:25.034Z,1006.9
2018-02-15T08:37:25.043Z,1006.9
2018-02-15T08:38:25.056Z,1006.89
2018-02-15T08:39:25.063Z,1006.88
2018-02-15T08:40:25.072Z,1006.87
2018-02-15T08:41:25.082Z,1006.87
2018-02-15T08:42:25.090Z,1006.91
2018-02-15T08:43:25.101Z,1006.92
2018-02-15T08:44:25.108Z,1006.87
2018-02-15T08:45:25.126Z,1006.86
2018-02-15T08:46:25.134Z,1006.87
2018-02-15T08:47:25.136Z,1006.84
2018-02-15T08:48:25.147Z,1006.86
2018-02-15T08:49:25.157Z,1006.91
2018-02-15T08:50:25.164Z,1006.91
2018-02-15T08:51:25.174Z,1006.93
2018-02-15T08:52:25.183Z,1006.9
2018-02-15T08:53:25.193Z,1006.87
2018-02-15T08:54:25.202Z,1006.9
2018-02-15T08:55:25.212Z,1006.84
2018-02-15T08:56:25.222Z,1006.83
2018-02-15T08:57:25.232Z,1006.83
2018-02-15T08:58:25.240Z,1006.81
2018-02-15T08:59:25.250Z,1006.75
2018-02-15T09:00:25.262Z,1006.72
2018-02-15T09:01:25.270Z,1006.7
2018-02-15T09:02:25.284Z,1006.63
2018-02-15T09:03:25.304Z,1006.7
2018-02-15T09:04:25.298Z,1006.66
2018-02-15T09:05:25.308Z,1006.66
2018-02-15T09:06:25.319Z,1006.68
2018-02-15T09:07:25.326Z,1006.69
2018-02-15T09:08:25.339Z,1006.6
2018-02-15T09:09:25.346Z,1006.67
2018-02-15T09:10:25.355Z,1006.69
2018-02-15T09:11:25.365Z,1006.67
2018-02-15T09:12:25.375Z,1006.65
2018-02-15T09:13:25.382Z,1006.65
2018-02-15T09:14:25.393Z,1006.62
2018-02-15T09:15:25.403Z,1006.59
2018-02-15T09:16:25.412Z,1006.6
2018-02-15T09:17:25.422Z,1006.61
2018-02-15T09:18:25.432Z,1006.57
2018-02-15T09:19:25.441Z,1006.57
2018-02-15T09:20:25.452Z,1006.57
2018-02-15T09:21:25.462Z,1006.49
2018-02-15T09:22:25.470Z,1006.53
2018-02-15T09:23:25.482Z,1006.48
2018-02-15T09:24:25.490Z,1006.51
2018-02-15T09:25:25.500Z,1006.5
2018-02-15T09:26:25.509Z,1006.49
2018-02-15T09:27:25.518Z,1006.5
2018-02-15T09:28:25.528Z,1006.48
2018-02-15T09:29:25.589Z,1006.47
2018-02-15T09:30:25.549Z,1006.44
2018-02-15T09:31:25.556Z,1006.5
2018-02-15T09:32:25.567Z,1006.47
2018-02-15T09:33:25.577Z,1006.44
2018-02-15T09:34:25.636Z,1006.43
2018-02-15T09:35:25.595Z,1006.4
2018-02-15T09:36:25.606Z,1006.39
2018-02-15T09:37:25.615Z,1006.35
2018-02-15T09:38:25.626Z,1006.33
2018-02-15T09:39:25.635Z,1006.33
2018-02-15T09:40:25.646Z,1006.27
2018-02-15T09:41:25.655Z,1006.28
2018-02-15T09:42:25.664Z,1006.3
2018-02-15T09:43:25.674Z,1006.31
2018-02-15T09:44:25.684Z,1006.26
2018-02-15T09:45:25.695Z,1006.23
2018-02-15T09:46:25.703Z,1006.23
2018-02-15T09:47:25.714Z,1006.25
2018-02-15T09:48:25.725Z,1006.19
2018-02-15T09:49:25.733Z,1006.24
2018-02-15T09:50:25.743Z,1006.22
2018-02-15T09:51:25.755Z,1006.22
2018-02-15T09:52:25.780Z,1006.18
2018-02-15T09:53:25.772Z,1006.18
2018-02-15T09:54:25.798Z,1006.15
2018-02-15T09:55:25.796Z,1006.17
2018-02-15T09:56:25.803Z,1006.2
2018-02-15T09:57:25.812Z,1006.17
2018-02-15T09:58:25.827Z,1006.23
2018-02-15T09:59:25.837Z,1006.23
2018-02-15T10:00:25.841Z,1006.2
2018-02-15T10:01:25.853Z,1006.2
2018-02-15T10:02:25.862Z,1006.18
2018-02-15T10:03:25.873Z,1006.17
2018-02-15T10:04:25.882Z,1006.18
2018-02-15T10:05:25.892Z,1006.2
2018-02-15T10:06:25.902Z,1006.16
2018-02-15T10:07:25.913Z,1006.16
2018-02-15T10:08:25.923Z,1006.16
2018-02-15T10:09:25.937Z,1006.12
2018-02-15T10:10:25.959Z,1006.13
2018-02-15T10:11:25.952Z,1006.12
2018-02-15T10:12:25.963Z,1006.13
2018-02-15T10:13:25.973Z,1006.14
2018-02-15T10:14:25.985Z,1006.13
2018-02-15T10:15:25.998Z,1006.13
2018-02-15T10:16:26.019Z,1006.1
2018-02-15T10:17:26.017Z,1006.11
2018-02-15T10:18:26.024Z,1006.13
2018-02-15T10:19:26.033Z,1006.15
2018-02-15T10:20:26.044Z,1006.16
2018-02-15T10:21:26.054Z,1006.15
2018-02-15T10:22:26.091Z,1006.18
2018-02-15T10:23:26.074Z,1006.14
2018-02-15T10:24:26.088Z,1006.14
2018-02-15T10:25:26.146Z,1006.22
2018-02-15T10:26:26.107Z,1006.22
2018-02-15T10:27:26.116Z,1006.21
2018-02-15T10:28:26.128Z,1006.21
2018-02-15T10:29:26.136Z,1006.22
2018-02-15T10:30:26.147Z,1006.24
2018-02-15T10:31:26.163Z,1006.19
2018-02-15T10:32:26.169Z,1006.23
2018-02-15T10:33:26.181Z,1006.24
2018-02-15T10:34:26.190Z,1006.19
2018-02-15T10:35:26.249Z,1006.11
2018-02-15T10:36:26.212Z,1006.11
2018-02-15T10:37:26.219Z,1006.08
2018-02-15T10:38:26.230Z,1006.09
2018-02-15T10:39:26.242Z,1006.1
2018-02-15T10:40:26.301Z,1006.09
2018-02-15T10:41:26.262Z,1006.05
2018-02-15T10:42:26.272Z,1006.09
2018-02-15T10:43:26.286Z,1006.07
2018-02-15T10:44:26.322Z,1006.02
2018-02-15T10:45:26.356Z,1006.03
2018-02-15T10:46:26.313Z,1006.02
2018-02-15T10:47:26.323Z,1005.97
2018-02-15T10:48:26.335Z,1005.97
2018-02-15T10:49:26.345Z,1005.98
2018-02-15T10:50:26.355Z,1005.97
2018-02-15T10:51:26.365Z,1005.98
2018-02-15T10:52:26.375Z,1005.94
2018-02-15T10:53:26.387Z,1005.98
2018-02-15T10:54:26.398Z,1005.94
2018-02-15T10:55:26.407Z,1005.95
2018-02-15T10:56:26.465Z,1005.96
2018-02-15T10:57:26.430Z,1005.97
2018-02-15T10:58:26.440Z,1005.99
2018-02-15T10:59:26.449Z,1005.96
2018-02-15T11:00:26.461Z,1006
2018-02-15T11:01:26.472Z,1006.04
2018-02-15T11:02:26.481Z,1006.04
2018-02-15T11:03:26.493Z,1006.02
2018-02-15T11:04:26.503Z,1006.04
2018-02-15T11:05:26.514Z,1006.03
2018-02-15T11:06:26.525Z,1005.98
2018-02-15T11:07:26.535Z,1005.97
2018-02-15T11:08:26.547Z,1005.94
2018-02-15T11:09:26.558Z,1005.95
2018-02-15T11:10:26.568Z,1005.87
2018-02-15T11:11:26.580Z,1005.83
2018-02-15T11:12:26.588Z,1005.86
2018-02-15T11:13:26.599Z,1005.87
2018-02-15T11:14:26.612Z,1005.88
2018-02-15T11:15:26.622Z,1005.85
2018-02-15T11:16:26.633Z,1005.82
2018-02-15T11:17:26.642Z,1005.82
2018-02-15T11:18:26.653Z,1005.78
2018-02-15T11:19:26.665Z,1005.8
2018-02-15T11:20:26.677Z,1005.78
2018-02-15T11:21:26.687Z,1005.79
2018-02-15T11:22:26.698Z,1005.74
2018-02-15T11:23:26.709Z,1005.74
2018-02-15T11:24:26.719Z,1005.71
2018-02-15T11:25:26.730Z,1005.69
2018-02-15T11:26:26.745Z,1005.68
2018-02-15T11:27:26.752Z,1005.71
2018-02-15T11:28:26.763Z,1005.71
2018-02-15T11:29:26.774Z,1005.6
2018-02-15T11:30:26.785Z,1005.57
2018-02-15T11:31:26.795Z,1005.6
2018-02-15T11:32:26.806Z,1005.57
2018-02-15T11:33:26.817Z,1005.54
2018-02-15T11:34:26.829Z,1005.49
2018-02-15T11:35:26.839Z,1005.52
2018-02-15T11:36:26.856Z,1005.52
2018-02-15T11:37:26.865Z,1005.52
2018-02-15T11:38:26.873Z,1005.47
2018-02-15T11:39:26.934Z,1005.48
2018-02-15T11:40:26.895Z,1005.47
2018-02-15T11:41:26.906Z,1005.49
2018-02-15T11:42:26.919Z,1005.49
2018-02-15T11:43:26.928Z,1005.43
2018-02-15T11:44:26.940Z,1005.38
2018-02-15T11:45:26.950Z,1005.36
2018-02-15T11:46:26.962Z,1005.35
2018-02-15T11:47:26.973Z,1005.39
2018-02-15T11:48:26.984Z,1005.4
2018-02-15T11:49:26.998Z,1005.38
2018-02-15T11:50:27.006Z,1005.39
2018-02-15T11:51:27.019Z,1005.37
2018-02-15T11:52:27.030Z,1005.36
2018-02-15T11:53:27.041Z,1005.37
2018-02-15T11:54:27.051Z,1005.3
2018-02-15T11:55:27.063Z,1005.32
2018-02-15T11:56:27.079Z,1005.33
2018-02-15T11:57:27.085Z,1005.28
2018-02-15T11:58:27.100Z,1005.27
2018-02-15T11:59:27.109Z,1005.31
2018-02-15T12:00:27.121Z,1005.25
2018-02-15T12:01:27.131Z,1005.25
2018-02-15T12:02:27.144Z,1005.27
2018-02-15T12:03:27.154Z,1005.23
2018-02-15T12:04:27.166Z,1005.17
2018-02-15T12:05:27.212Z,1005.21
2018-02-15T12:06:27.192Z,1005.16
2018-02-15T12:07:27.201Z,1005.15
2018-02-15T12:08:27.212Z,1005.15